Kezdőlap
METAR-TAF:

METAR-TAF

Repülőterek :

Emmen, Svájc

földrajzi szélesség: 47-05-32N, földrajzi hosszúság: 8-18-16E, magasság: 426 m

Jelenlegi meteorológiai megfigyelések

A jelentés 30 perccel ezelõtt készült, 18:20 UTC
Délnyugati szél 9 kt
Hőmérséklet 5°C
Páratartalom 65%
Légköri nyomás 1027 hPa
Látótávolság 10 km, vagy több
Kevés felhő 8400 lábon
Borult 16000 lábon

METAR: LSME 191820Z AUTO 23009KT 9999NDV FEW084 OVC160 05/M01 Q1027 RMK

Idő: 19:50 (18:50 UTC)


TAF: hiányzik

Meteorológiai megfigyelések és előrejelzések több, mint 4000 repülőtéren (METAR és TAF jelentéseket).

A térképen piros és sárga pontok jelzik az elérhető meteorológiai állomásokat.

Mozgassa az egeret a pont fölött, hogy megjelenjen az állomás neve.

Azután kattintson az időjárási megfigyelések és előrejelzések megtekintéséhez.

A térkép megváltoztatása: kattintson a fekete keresztel jelölt zöld gombra ráközelítéshez, a vonallal jelölt zöld gombra távolításhoz, vagy a zöld nyilakra a szomszédos térképek eléréséhez.


METAR-TAF: